.
WxDataArchive / Data Records for 2006-10-07
2006-10-06 October 2006 2006-10-08

Data Records for Saturday, 07 October 2006

Time	Temp	Chill	HIndex	Humid	Dewpt	 Wind 	HiWind	WindDir	Rain 	Barom 
-----	----	-----	------	-----	-----	------	------	-------	-----	----- 
00:00	43.9	43.9	43.9	81	38.5	0	0	---	0.00	30.382 
00:05	43.5	43.5	43.5	81	38.1	0	0	---	0.00	30.382 
00:10	43.2	43.2	43.2	82	38.1	0	0	---	0.00	30.382 
00:15	42.9	42.9	42.9	83	38.1	0	0	---	0.00	30.377 
00:20	42.5	42.5	42.5	84	38.0	0	0	---	0.00	30.377 
00:25	42.2	42.2	42.2	85	38.0	0	0	---	0.00	30.377 
00:30	41.9	41.9	41.9	85	37.7	0	0	---	0.00	30.376 
00:35	41.6	41.6	41.6	86	37.7	0	0	---	0.00	30.376 
00:40	41.3	41.3	41.3	86	37.4	0	0	---	0.00	30.376 
00:45	41.2	41.2	41.2	87	37.6	0	0	---	0.00	30.376 
00:50	40.9	40.9	40.9	88	37.6	0	0	---	0.00	30.376 
00:55	40.8	40.8	40.8	88	37.5	0	0	---	0.00	30.376 
01:00	40.6	40.6	40.6	88	37.3	0	0	---	0.00	30.375 
01:05	40.5	40.5	40.5	88	37.2	0	0	---	0.00	30.375 
01:10	40.2	40.2	40.2	88	36.9	0	0	---	0.00	30.375 
01:15	40.1	40.1	40.1	89	37.1	0	0	---	0.00	30.372 
01:20	39.8	39.8	39.8	89	36.8	0	0	---	0.00	30.372 
01:25	39.6	39.6	39.6	89	36.6	0	0	---	0.00	30.372 
01:30	39.5	39.5	39.5	90	36.8	0	0	---	0.00	30.368 
01:35	39.3	39.3	39.3	90	36.6	0	0	---	0.00	30.368 
01:40	39.3	39.3	39.3	90	36.6	0	0	---	0.00	30.368 
01:45	39.2	39.2	39.2	90	36.5	0	0	---	0.00	30.362 
01:50	39.1	39.1	39.1	91	36.7	0	0	---	0.00	30.362 
01:55	38.9	38.9	38.9	91	36.5	0	0	---	0.00	30.362 
02:00	38.8	38.8	38.8	91	36.4	0	0	---	0.00	30.361 
02:05	38.8	38.8	38.8	91	36.4	0	0	---	0.00	30.361 
02:10	38.6	38.6	38.6	92	36.5	0	0	---	0.00	30.361 
02:15	38.6	38.6	38.6	92	36.5	0	0	---	0.00	30.357 
02:20	38.5	38.5	38.5	92	36.4	0	0	---	0.00	30.357 
02:25	38.5	38.5	38.5	92	36.4	0	0	---	0.00	30.357 
02:30	38.3	38.3	38.3	92	36.2	0	0	---	0.00	30.358 
02:35	38.3	38.3	38.3	92	36.2	0	0	---	0.00	30.358 
02:40	38.2	38.2	38.2	92	36.1	0	0	---	0.00	30.358 
02:45	38.2	38.2	38.2	92	36.1	0	0	---	0.00	30.353 
02:50	38.0	38.0	38.0	93	36.2	0	0	---	0.00	30.353 
02:55	38.0	38.0	38.0	93	36.2	0	0	---	0.00	30.353 
03:00	38.0	38.0	38.0	93	36.2	0	0	---	0.00	30.349 
03:05	38.0	38.0	38.0	93	36.2	0	0	---	0.00	30.349 
03:10	37.9	37.9	37.9	93	36.1	0	0	---	0.00	30.349 
03:15	37.8	37.8	37.8	93	36.0	0	0	---	0.00	30.347 
03:20	37.8	37.8	37.8	93	36.0	0	0	---	0.00	30.347 
03:25	37.8	37.8	37.8	93	36.0	0	0	---	0.00	30.347 
03:30	37.8	37.8	37.8	93	36.0	0	0	---	0.00	30.351 
03:35	37.6	37.6	37.6	93	35.8	0	0	---	0.00	30.351 
03:40	37.6	37.6	37.6	94	36.0	0	0	---	0.00	30.351 
03:45	37.5	37.5	37.5	93	35.7	0	0	---	0.00	30.350 
03:50	37.5	37.5	37.5	94	35.9	0	0	---	0.00	30.350 
03:55	37.3	37.3	37.3	94	35.7	0	0	---	0.00	30.350 
04:00	37.3	37.3	37.3	94	35.7	0	0	---	0.00	30.346 
04:05	37.3	37.3	37.3	94	35.7	0	0	---	0.00	30.346 
04:10	37.2	37.2	37.2	94	35.6	0	0	---	0.00	30.346 
04:15	37.2	37.2	37.2	94	35.6	0	0	---	0.00	30.347 
04:20	37.2	37.2	37.2	94	35.6	0	0	---	0.00	30.347 
04:25	37.2	37.2	37.2	94	35.6	0	0	---	0.00	30.347 
04:30	37.2	37.2	37.2	94	35.6	0	0	---	0.00	30.347 
04:35	37.2	37.2	37.2	94	35.6	0	0	---	0.00	30.347 
04:40	37.0	37.0	37.0	94	35.4	0	0	---	0.00	30.347 
04:45	37.0	37.0	37.0	94	35.4	0	0	---	0.00	30.347 
04:50	37.0	37.0	37.0	94	35.4	0	0	---	0.00	30.347 
04:55	37.0	37.0	37.0	95	35.7	0	0	---	0.00	30.347 
05:00	37.2	37.2	37.2	95	35.9	0	0	---	0.00	30.346 
05:05	37.2	37.2	37.2	95	35.9	0	0	---	0.00	30.346 
05:10	37.2	37.2	37.2	95	35.9	0	0	---	0.00	30.346 
05:15	37.3	37.3	37.3	95	36.0	0	0	---	0.00	30.347 
05:20	37.3	37.3	37.3	95	36.0	0	0	---	0.00	30.347 
05:25	37.5	37.5	37.5	95	36.2	0	0	---	0.00	30.347 
05:30	37.5	37.5	37.5	95	36.2	0	0	---	0.00	30.345 
05:35	37.5	37.5	37.5	95	36.2	0	0	---	0.00	30.345 
05:40	37.5	37.5	37.5	95	36.2	0	0	---	0.00	30.345 
05:45	37.6	37.6	37.6	95	36.3	0	0	---	0.00	30.344 
05:50	37.9	37.9	37.9	96	36.9	0	1	112	0.00	30.344 
05:55	38.6	38.6	38.6	96	37.6	0	0	---	0.00	30.344 
06:00	38.9	38.9	38.9	96	37.9	0	0	---	0.00	30.346 
06:05	38.9	38.9	38.9	96	37.9	0	0	---	0.00	30.346 
06:10	38.9	38.9	38.9	96	37.9	0	0	---	0.00	30.346 
06:15	38.8	38.8	38.8	96	37.8	0	0	---	0.00	30.354 
06:20	38.8	38.8	38.8	96	37.8	0	0	---	0.00	30.354 
06:25	38.6	38.6	38.6	96	37.6	0	0	---	0.00	30.354 
06:30	38.5	38.5	38.5	96	37.5	0	0	---	0.00	30.360 
06:35	38.3	38.3	38.3	96	37.3	0	0	---	0.00	30.360 
06:40	38.2	38.2	38.2	96	37.2	0	0	---	0.00	30.360 
06:45	38.0	38.0	38.0	96	37.0	0	0	---	0.00	30.363 
06:50	37.8	37.8	37.8	96	36.8	0	0	---	0.00	30.363 
06:55	37.6	37.6	37.6	96	36.6	0	0	---	0.00	30.363 
07:00	37.6	37.6	37.6	96	36.6	0	0	---	0.00	30.365 
07:05	37.8	37.8	37.8	96	36.8	0	0	---	0.00	30.365 
07:10	37.8	37.8	37.8	96	36.8	0	0	---	0.00	30.365 
07:15	37.8	37.8	37.8	96	36.8	0	0	---	0.00	30.369 
07:20	37.9	37.9	37.9	96	36.9	0	0	---	0.00	30.369 
07:25	37.9	37.9	37.9	96	36.9	0	0	---	0.00	30.369 
07:30	37.8	37.8	37.8	96	36.8	0	0	---	0.00	30.369 
07:35	37.8	37.8	37.8	96	36.8	0	0	---	0.00	30.369 
07:40	37.9	37.9	37.9	96	36.9	0	0	---	0.00	30.369 
07:45	37.9	37.9	37.9	96	36.9	0	0	---	0.00	30.370 
07:50	37.9	37.9	37.9	96	36.9	0	0	---	0.00	30.370 
07:55	37.8	37.8	37.8	96	36.8	0	0	---	0.00	30.370 
08:00	37.9	37.9	37.9	96	36.9	0	0	---	0.00	30.373 
08:05	37.9	37.9	37.9	96	36.9	0	0	---	0.00	30.373 
08:10	38.0	38.0	38.0	96	37.0	0	0	---	0.00	30.373 
08:15	38.2	38.2	38.2	96	37.2	0	0	---	0.00	30.375 
08:20	38.5	38.5	38.5	96	37.5	0	0	---	0.00	30.375 
08:25	38.9	38.9	38.9	96	37.9	0	0	---	0.00	30.375 
08:30	39.1	39.1	39.1	96	38.1	0	0	---	0.00	30.384 
08:35	39.3	39.3	39.3	96	38.3	0	0	---	0.00	30.384 
08:40	39.6	39.6	39.6	96	38.6	0	0	---	0.00	30.384 
08:45	40.2	40.2	40.2	97	39.4	0	0	---	0.00	30.387 
08:50	40.8	40.8	40.8	97	40.0	0	1	112	0.00	30.387 
08:55	41.3	41.3	41.3	97	40.5	0	0	---	0.00	30.387 
09:00	41.8	41.8	41.8	97	41.0	0	1	112	0.00	30.384 
09:05	42.2	42.2	42.2	97	41.4	0	1	112	0.00	30.384 
09:10	42.8	42.8	42.8	97	42.0	0	2	112	0.00	30.384 
09:15	43.2	43.2	43.2	97	42.4	0	1	112	0.00	30.389 
09:20	43.6	43.6	43.6	97	42.8	1	2	112	0.00	30.389 
09:25	44.1	44.1	44.1	96	43.0	0	1	112	0.00	30.389 
09:30	44.6	44.6	44.6	96	43.5	2	5	90	0.00	30.393 
09:35	44.9	44.9	44.9	93	43.0	1	3	90	0.00	30.393 
09:40	45.5	45.5	45.5	92	43.3	1	3	90	0.00	30.393 
09:45	46.4	46.4	46.4	91	43.9	1	3	90	0.00	30.393 
09:50	47.3	47.3	47.3	88	43.9	1	3	90	0.00	30.393 
09:55	48.2	48.2	48.2	84	43.6	2	4	90	0.00	30.393 
10:00	48.9	48.9	48.9	84	44.3	1	3	90	0.00	30.384 
10:05	49.6	49.6	49.6	82	44.3	1	2	90	0.00	30.384 
10:10	50.4	50.4	50.4	80	44.5	1	3	90	0.00	30.384 
10:15	51.1	51.1	51.1	79	44.8	1	3	90	0.00	30.389 
10:20	51.7	51.7	51.7	77	44.7	1	4	90	0.00	30.389 
10:25	52.3	52.3	52.3	77	45.3	0	2	90	0.00	30.389 
10:30	53.1	53.1	53.1	75	45.4	0	2	90	0.00	30.387 
10:35	53.5	53.5	53.5	75	45.8	1	3	90	0.00	30.387 
10:40	53.5	53.5	53.5	77	46.5	0	2	90	0.00	30.387 
10:45	54.2	54.2	54.2	74	46.1	1	2	90	0.00	30.380 
10:50	54.5	54.5	54.5	74	46.4	1	3	90	0.00	30.380 
10:55	55.0	55.0	55.0	70	45.4	1	2	90	0.00	30.380 
11:00	55.3	55.3	55.3	71	46.1	1	3	90	0.00	30.379 
11:05	55.7	55.7	55.7	70	46.1	0	1	90	0.00	30.379 
11:10	56.7	56.7	56.7	68	46.3	1	3	90	0.00	30.379 
11:15	57.5	57.5	57.5	66	46.2	0	3	90	0.00	30.383 
11:20	58.1	58.1	58.1	63	45.6	1	4	112	0.00	30.383 
11:25	58.1	58.1	58.1	64	46.0	1	3	90	0.00	30.383 
11:30	58.3	58.3	58.3	65	46.6	1	2	112	0.00	30.376 
11:35	58.3	58.3	58.3	64	46.2	1	4	112	0.00	30.376 
11:40	58.6	58.6	58.6	63	46.0	1	4	112	0.00	30.376 
11:45	58.9	58.9	58.9	63	46.3	1	3	90	0.00	30.378 
11:50	58.9	58.9	58.9	63	46.3	2	5	90	0.00	30.378 
11:55	59.5	59.5	59.5	65	47.7	1	2	90	0.00	30.378 
12:00	60.1	60.1	60.1	64	47.9	2	4	90	0.00	30.376 
12:05	60.2	60.2	60.2	60	46.3	1	3	112	0.00	30.376 
12:10	60.4	60.4	60.4	58	45.6	1	2	112	0.00	30.376 
12:15	61.0	61.0	61.0	59	46.6	1	3	112	0.00	30.375 
12:20	60.9	60.9	60.9	55	44.6	2	4	112	0.00	30.375 
12:25	61.0	61.0	61.0	55	44.7	1	4	90	0.00	30.375 
12:30	61.2	61.2	61.2	55	44.9	1	3	90	0.00	30.372 
12:35	61.3	61.3	61.3	57	45.9	1	4	112	0.00	30.372 
12:40	61.3	61.3	61.3	55	45.0	1	4	90	0.00	30.372 
12:45	61.5	61.5	61.5	52	43.7	1	4	90	0.00	30.364 
12:50	61.5	61.5	61.5	52	43.7	2	5	112	0.00	30.364 
12:55	61.2	61.2	61.2	54	44.4	2	7	90	0.00	30.364 
13:00	61.2	61.2	61.2	55	44.9	2	5	90	0.00	30.362 
13:05	61.3	61.3	61.3	54	44.5	1	3	90	0.00	30.362 
13:10	61.6	61.6	61.6	52	43.8	2	4	90	0.00	30.362 
13:15	62.0	62.0	62.0	53	44.7	0	2	68	0.00	30.355 
13:20	62.3	62.3	62.3	55	45.9	1	3	68	0.00	30.355 
13:25	62.3	62.3	62.3	51	43.9	2	4	90	0.00	30.355 
13:30	62.6	62.6	62.6	51	44.2	1	4	112	0.00	30.344 
13:35	62.9	62.9	62.9	50	44.0	1	4	112	0.00	30.344 
13:40	62.9	62.9	62.9	50	44.0	1	3	90	0.00	30.344 
13:45	63.1	63.1	63.1	49	43.6	1	5	90	0.00	30.336 
13:50	62.9	62.9	62.9	49	43.4	2	5	90	0.00	30.336 
13:55	62.7	62.7	62.7	49	43.3	1	3	45	0.00	30.336 
14:00	62.9	62.9	62.9	53	45.5	1	3	90	0.00	30.327 
14:05	63.2	63.2	63.2	51	44.8	0	2	45	0.00	30.327 
14:10	63.1	63.1	63.1	51	44.7	3	7	90	0.00	30.327 
14:15	63.4	63.4	63.4	49	43.9	1	3	135	0.00	30.324 
14:20	63.5	63.5	63.5	48	43.5	1	3	158	0.00	30.324 
14:25	63.5	63.5	63.5	48	43.5	1	4	112	0.00	30.324 
14:30	63.5	63.5	63.5	52	45.6	0	2	112	0.00	30.316 
14:35	63.5	63.5	63.5	47	42.9	2	5	90	0.00	30.316 
14:40	63.7	63.7	63.7	46	42.5	2	6	90	0.00	30.316 
14:45	63.7	63.7	63.7	46	42.5	2	7	68	0.00	30.311 
14:50	64.0	64.0	64.0	47	43.4	0	3	68	0.00	30.311 
14:55	64.0	64.0	64.0	50	45.0	1	5	90	0.00	30.311 
15:00	64.0	64.0	64.0	47	43.4	2	4	90	0.00	30.308 
15:05	63.9	63.9	63.9	45	42.1	2	5	90	0.00	30.308 
15:10	64.0	64.0	64.0	45	42.2	2	5	90	0.00	30.308 
15:15	64.3	64.3	64.3	51	45.8	0	3	90	0.00	30.298 
15:20	64.5	64.5	64.5	50	45.4	1	3	68	0.00	30.298 
15:25	64.7	64.7	64.7	45	42.9	1	3	90	0.00	30.298 
15:30	64.5	64.5	64.5	47	43.8	1	5	112	0.00	30.294 
15:35	64.7	64.7	64.7	46	43.4	2	5	112	0.00	30.294 
15:40	64.7	64.7	64.7	44	42.3	1	4	112	0.00	30.294 
15:45	64.8	64.8	64.8	45	43.0	0	2	90	0.00	30.292 
15:50	65.2	65.2	65.2	45	43.3	0	1	90	0.00	30.292 
15:55	65.3	65.3	65.3	44	42.8	1	3	90	0.00	30.292 
16:00	65.2	65.2	65.2	43	42.1	2	5	90	0.00	30.290 
16:05	65.0	65.0	65.0	45	43.1	1	3	90	0.00	30.290 
16:10	65.2	65.2	65.2	47	44.5	0	1	90	0.00	30.290 
16:15	65.3	65.3	65.3	43	42.2	1	2	90	0.00	30.289 
16:20	65.3	65.3	65.3	43	42.2	2	5	112	0.00	30.289 
16:25	65.2	65.2	65.2	43	42.1	2	4	68	0.00	30.289 
16:30	65.2	65.2	65.2	43	42.1	2	5	112	0.00	30.280 
16:35	65.2	65.2	65.2	43	42.1	2	4	90	0.00	30.280 
16:40	65.0	65.0	65.0	41	40.7	1	4	112	0.00	30.280 
16:45	64.8	64.8	64.8	44	42.4	1	4	90	0.00	30.280 
16:50	64.8	64.8	64.8	44	42.4	1	3	112	0.00	30.280 
16:55	65.0	65.0	65.0	44	42.6	2	4	112	0.00	30.280 
17:00	65.0	65.0	65.0	44	42.6	1	3	68	0.00	30.278 
17:05	65.0	65.0	65.0	44	42.6	1	4	90	0.00	30.278 
17:10	65.0	65.0	65.0	43	42.0	1	4	90	0.00	30.278 
17:15	65.0	65.0	65.0	43	42.0	1	4	90	0.00	30.269 
17:20	65.0	65.0	65.0	43	42.0	2	5	90	0.00	30.269 
17:25	65.0	65.0	65.0	47	44.3	1	3	68	0.00	30.269 
17:30	65.0	65.0	65.0	44	42.6	1	3	90	0.00	30.267 
17:35	64.8	64.8	64.8	44	42.4	1	4	90	0.00	30.267 
17:40	64.8	64.8	64.8	43	41.8	1	4	90	0.00	30.267 
17:45	64.8	64.8	64.8	44	42.4	1	4	90	0.00	30.264 
17:50	64.7	64.7	64.7	44	42.3	1	3	90	0.00	30.264 
17:55	64.7	64.7	64.7	44	42.3	1	3	90	0.00	30.264 
18:00	64.5	64.5	64.5	43	41.5	1	2	90	0.00	30.263 
18:05	64.5	64.5	64.5	45	42.7	0	2	90	0.00	30.263 
18:10	64.3	64.3	64.3	44	41.9	2	4	90	0.00	30.263 
18:15	64.2	64.2	64.2	45	42.4	1	3	90	0.00	30.265 
18:20	64.0	64.0	64.0	46	42.8	0	2	90	0.00	30.265 
18:25	63.9	63.9	63.9	47	43.3	1	3	90	0.00	30.265 
18:30	63.7	63.7	63.7	46	42.5	0	2	90	0.00	30.265 
18:35	63.5	63.5	63.5	48	43.5	0	2	90	0.00	30.265 
18:40	63.2	63.2	63.2	49	43.7	0	2	90	0.00	30.265 
18:45	62.9	62.9	62.9	50	44.0	0	0	---	0.00	30.267 
18:50	62.4	62.4	62.4	52	44.5	0	0	---	0.00	30.267 
18:55	61.8	61.8	61.8	54	45.0	0	0	---	0.00	30.267 
19:00	61.2	61.2	61.2	54	44.4	0	0	---	0.00	30.268 
19:05	60.7	60.7	60.7	55	44.4	0	0	---	0.00	30.268 
19:10	60.1	60.1	60.1	57	44.8	0	0	---	0.00	30.268 
19:15	59.3	59.3	59.3	59	45.0	0	0	---	0.00	30.266 
19:20	58.7	58.7	58.7	61	45.3	0	0	---	0.00	30.266 
19:25	58.0	58.0	58.0	63	45.5	0	0	---	0.00	30.266 
19:30	57.3	57.3	57.3	65	45.6	0	0	---	0.00	30.268 
19:35	56.6	56.6	56.6	66	45.4	0	0	---	0.00	30.268 
19:40	56.0	56.0	56.0	68	45.6	0	0	---	0.00	30.268 
19:45	55.6	55.6	55.6	69	45.6	0	0	---	0.00	30.269 
19:50	55.0	55.0	55.0	69	45.0	0	0	---	0.00	30.269 
19:55	54.4	54.4	54.4	72	45.6	0	0	---	0.00	30.269 
20:00	53.9	53.9	53.9	73	45.4	0	0	---	0.00	30.269 
20:05	53.5	53.5	53.5	75	45.8	0	0	---	0.00	30.269 
20:10	53.1	53.1	53.1	76	45.7	0	0	---	0.00	30.269 
20:15	52.6	52.6	52.6	76	45.3	0	0	---	0.00	30.265 
20:20	52.2	52.2	52.2	77	45.2	0	0	---	0.00	30.265 
20:25	51.9	51.9	51.9	79	45.6	0	0	---	0.00	30.265 
20:30	51.4	51.4	51.4	80	45.4	0	0	---	0.00	30.269 
20:35	51.1	51.1	51.1	81	45.5	0	0	---	0.00	30.269 
20:40	50.8	50.8	50.8	81	45.2	0	0	---	0.00	30.269 
20:45	50.5	50.5	50.5	82	45.2	0	0	---	0.00	30.270 
20:50	50.2	50.2	50.2	83	45.2	0	0	---	0.00	30.270 
20:55	49.9	49.9	49.9	84	45.3	0	0	---	0.00	30.270 
21:00	49.6	49.6	49.6	84	45.0	0	0	---	0.00	30.271 
21:05	49.5	49.5	49.5	84	44.9	0	0	---	0.00	30.271 
21:10	49.2	49.2	49.2	85	44.9	0	0	---	0.00	30.271 
21:15	49.1	49.1	49.1	86	45.1	0	0	---	0.00	30.264 
21:20	48.8	48.8	48.8	86	44.8	0	0	---	0.00	30.264 
21:25	48.6	48.6	48.6	87	44.9	0	0	---	0.00	30.264 
21:30	48.3	48.3	48.3	87	44.6	0	0	---	0.00	30.263 
21:35	48.2	48.2	48.2	88	44.8	0	0	---	0.00	30.263 
21:40	48.0	48.0	48.0	88	44.6	0	0	---	0.00	30.263 
21:45	47.7	47.7	47.7	88	44.3	0	0	---	0.00	30.259 
21:50	47.6	47.6	47.6	88	44.2	0	0	---	0.00	30.259 
21:55	47.4	47.4	47.4	89	44.3	0	0	---	0.00	30.259 
22:00	47.1	47.1	47.1	89	44.0	0	0	---	0.00	30.264 
22:05	47.0	47.0	47.0	89	43.9	0	0	---	0.00	30.264 
22:10	47.0	47.0	47.0	90	44.2	0	0	---	0.00	30.264 
22:15	47.0	47.0	47.0	90	44.2	0	0	---	0.00	30.262 
22:20	46.8	46.8	46.8	90	44.0	0	0	---	0.00	30.262 
22:25	47.0	47.0	47.0	91	44.5	0	1	90	0.00	30.262 
22:30	47.6	47.6	47.6	88	44.2	0	1	90	0.00	30.265 
22:35	48.5	48.5	48.5	84	43.9	0	1	90	0.00	30.265 
22:40	49.1	49.1	49.1	83	44.2	0	1	90	0.00	30.265 
22:45	49.1	49.1	49.1	83	44.2	0	0	---	0.00	30.265 
22:50	49.1	49.1	49.1	83	44.2	0	1	90	0.00	30.265 
22:55	49.2	49.2	49.2	83	44.3	0	1	90	0.00	30.265 
23:00	49.5	49.5	49.5	82	44.2	0	2	90	0.00	30.265 
23:05	49.8	49.8	49.8	81	44.2	0	1	90	0.00	30.265 
23:10	50.1	50.1	50.1	81	44.5	0	2	90	0.00	30.265 
23:15	50.4	50.4	50.4	80	44.5	0	2	90	0.00	30.263 
23:20	50.5	50.5	50.5	80	44.6	0	1	90	0.00	30.263 
23:25	50.4	50.4	50.4	80	44.5	0	1	90	0.00	30.263 
23:30	50.2	50.2	50.2	80	44.3	0	2	90	0.00	30.266 
23:35	50.1	50.1	50.1	81	44.5	0	1	90	0.00	30.266 
23:40	49.9	49.9	49.9	81	44.3	0	1	90	0.00	30.266 
23:45	49.8	49.8	49.8	81	44.2	0	1	90	0.00	30.264 
23:50	49.6	49.6	49.6	81	44.0	0	1	90	0.00	30.264 
23:55	49.4	49.4	49.4	82	44.1	0	1	90	0.00	30.264 

CoCoRaHS
IN-AL-39
A2 Web Hosting
Creative Commons License
GoDaddy
Look for:

loaded 2017-12-12 15:12:08 • last modified 2010-11-18 10:43:29
Privacy PolicyDisclaimer
• wx.awcolley.com is powered by PmWiki v.2002016 •
• all content (unless otherwise noted) © 2017 A W Colley